Mendon - 24 Hour Table
Date & TimeSolar
Radiation
(W/m²)
Wind
Speed
(mph)
Wind
Direction
(degrees)
Air
Temperature
(°F)
Relative
Humidity
(%)
Precipitation
(inches)
2019/04/18 13:00 945 0.4 111 60.8 38 0.00
2019/04/18 12:00 925 0.5 122 58.1 50 0.00
2019/04/18 11:00 846 0.7 336 54.2 54 0.00
2019/04/18 10:00 715 0.3 68 52.1 57 0.00
2019/04/18 09:00 539 0.0 84 47.9 66 0.00
2019/04/18 08:00 126 0.1 150 41.5 81 0.00
2019/04/18 07:00 37 0.0 233 34.8 89 0.00
2019/04/18 06:00 3 0.0 301 33.4 95 0.00
2019/04/18 05:00 1 0.0 261 34.8 92 0.00
2019/04/18 04:00 1 0.0 260 36.1 90 0.00
2019/04/18 03:00 1 0.0 231 38.0 87 0.00
2019/04/18 02:00 1 0.0 227 40.3 87 0.00
2019/04/18 01:00 1 0.0 244 41.0 73 0.00
2019/04/18 00:00 1 0.0 248 42.0 84 0.00
2019/04/17 23:00 2 0.0 289 44.7 72 0.00
2019/04/17 22:00 2 0.0 269 46.7 77 0.00
2019/04/17 21:00 2 0.0 236 47.0 76 0.00
2019/04/17 20:00 3 0.0 321 51.0 60 0.00
2019/04/17 19:00 25 0.3 324 53.1 52 0.00
2019/04/17 18:00 94 0.6 248 53.8 53 0.00
2019/04/17 17:00 152 1.4 258 54.1 51 0.00
2019/04/17 16:00 223 1.7 290 54.6 48 0.00
2019/04/17 15:00 164 1.2 191 51.9 48 0.00
2019/04/17 14:00 345 1.2 277 53.5 51 0.00